Compagnie Fsx-France! Un nouveau look pour votre VA, par: Julien & Co




 METAR ET TAF INFORMATION
METAR FOR LFML
ADDS - METARS form results

(1142 UTC 26 May 2020)
Data provider http://aviationweather.gov/metar/data/
 
METAR text: LFML 261130Z AUTO 26007KT CAVOK 27/13 Q1024 NOSIG
Conditions at: LFML (MARSEILLE/MARIGN, FR) observed 1130 UTC 26 May 2020
Temperature: 27.0°C (81°F)
Dewpoint: 13.0°C (55°F) [RH = 42%]
Pressure (altimeter): 30.24 inches Hg (1024.0 mb)
Winds: from the W (260 degrees) at 8 MPH (7 knots; 3.6 m/s)
Visibility: 6 or more miles (10+ km)
Ceiling: ceiling and visibility are OK
Clouds: unknown
Weather: no significant weather observed at this time

METAR text: LFML 261100Z AUTO 26007KT CAVOK 26/12 Q1024 NOSIG
Conditions at: LFML (MARSEILLE/MARIGN, FR) observed 1100 UTC 26 May 2020
Temperature: 26.0°C (79°F)
Dewpoint: 12.0°C (54°F) [RH = 42%]
Pressure (altimeter): 30.24 inches Hg (1024.0 mb)
Winds: from the W (260 degrees) at 8 MPH (7 knots; 3.6 m/s)
Visibility: 6 or more miles (10+ km)
Ceiling: ceiling and visibility are OK
Clouds: unknown
Weather: no significant weather observed at this time

Forecast for: LFML (MARSEILLE/MARIGN, FR)
Text: TAF LFML 260800Z 2609/2715 VRB03KT CAVOK TX28/2613Z TN17/2705Z
Forecast period: 0900 UTC 26 May 2020 to 0800 UTC 27 May 2020
Forecast type: FROM: standard forecast or significant change
Winds: variable direction winds at 3 MPH (3 knots; 1.5 m/s)
Visibility: 6 or more miles 10+ km)
Ceiling: unknown
Clouds: missing
Weather: no significant weather forecast for this period
Text: BECMG 2708/2710 12015KT
Forecast period: 0800 to 1500 UTC 27 May 2020
Forecast type: BECOMING: Conditions expected to become as follows by 1000 UTC 27 May 2020
Winds: from the ESE (120 degrees) at 17 MPH (15 knots; 7.7 m/s)
Visibility: 6 or more miles 10+ km)
Ceiling: unknown
Clouds: missing
Weather: no significant weather forecast for this period

 AÉROPORT DE AÉROPORT

 INFORMATIONS DE PISTE
Piste 13L Longueur de la piste 3500 m = 11483 ft Largeur de la piste 45 m = 148 ft
Élévation de la piste 8 ft Seuil de la piste déplacés 1116 ft Runway heading 134
Piste 31R Longueur de la piste 3500 m = 11483 ft Largeur de la piste 45 m = 148 ft
Élévation de la piste 53 ft Seuil de la piste déplacés 2165 ft Runway heading 314
Piste 13R Longueur de la piste 2370 m = 7776 ft Largeur de la piste 45 m = 148 ft
Élévation de la piste 8 ft Seuil de la piste déplacés 0 ft Runway heading 134
Piste 31L Longueur de la piste 2370 m = 7776 ft Largeur de la piste 45 m = 148 ft
Élévation de la piste 61 ft Seuil de la piste déplacés 345 ft Runway heading 314

 AÉROPORT FRÉQUENCES
Type APP Nom APP/RADAR Féquence 120.2 MHZ
Type ATIS Nom ATIS Féquence 125.35 MHZ
Type GND Nom GND Féquence 121.9 MHZ
Type INFO Nom INFO Féquence 118.85 MHZ
Type PFLT Nom PERFLIGHT Féquence 121.725 MHZ
Type TWR Nom TWR Féquence 118.375 MHZ

 AIDES A LA NAVIGATION
Type VOR-DME Nom Marseille/Provence Féquence 108800 KHZ